Time;durP1;ratioP1;P1;durP2;ratioP2;P2;SDS_P1;SDS_P2;PMS_P1;PMS_P2;Temp;Humidity;BMP_temperature;BMP_pressure;BME280_temperature;BME280_humidity;BME280_pressure;Samples;Min_cycle;Max_cycle;Signal;HPM_P1;HPM_P2
2023/03/27 00:00:52;;;;;;;9.93;2.40;;;6.90;1.00;;;;;;5075573;28;20165;-75
2023/03/27 00:03:19;;;;;;;6.43;2.43;;;6.80;1.00;;;;;;5074894;28;20251;-76
2023/03/27 00:05:45;;;;;;;5.13;1.90;;;6.90;1.00;;;;;;5074684;28;20172;-76
2023/03/27 00:08:12;;;;;;;6.03;1.93;;;6.90;1.00;;;;;;5075488;28;20217;-76
2023/03/27 00:10:38;;;;;;;6.03;2.00;;;6.90;1.00;;;;;;5075560;28;20164;-75
2023/03/27 00:13:05;;;;;;;6.97;2.27;;;6.90;1.00;;;;;;5075232;28;20321;-75
2023/03/27 00:15:32;;;;;;;8.90;2.20;;;6.90;1.00;;;;;;5075346;28;20168;-76
2023/03/27 00:18:02;;;;;;;8.13;2.20;;;6.90;1.00;;;;;;5075004;28;20254;-75
2023/03/27 00:20:30;;;;;;;9.57;2.17;;;7.00;1.00;;;;;;5075029;28;20165;-76
2023/03/27 00:22:56;;;;;;;11.93;2.37;;;7.00;1.00;;;;;;5075056;28;20257;-75
2023/03/27 00:25:25;;;;;;;11.07;2.60;;;7.10;1.00;;;;;;5075018;28;20179;-76
2023/03/27 00:27:52;;;;;;;10.83;2.50;;;7.10;1.00;;;;;;5075007;28;20182;-76
2023/03/27 00:30:19;;;;;;;8.50;2.80;;;7.10;1.00;;;;;;5075015;28;20169;-76
2023/03/27 00:32:45;;;;;;;10.00;2.40;;;7.10;1.00;;;;;;5074954;28;20224;-78
2023/03/27 00:35:12;;;;;;;8.00;2.50;;;7.10;1.00;;;;;;5074491;28;20169;-76
2023/03/27 00:37:38;;;;;;;8.20;2.23;;;7.00;1.00;;;;;;5074842;28;20215;-75
2023/03/27 00:40:06;;;;;;;4.00;2.27;;;7.10;1.00;;;;;;5074773;28;20197;-75
2023/03/27 00:42:33;;;;;;;11.27;2.40;;;7.00;1.00;;;;;;5074830;28;20259;-76
2023/03/27 00:45:00;;;;;;;10.37;2.50;;;7.00;1.00;;;;;;5074983;28;20226;-75
2023/03/27 00:47:34;;;;;;;11.70;2.90;;;7.00;1.00;;;;;;5074827;28;20190;-75
2023/03/27 00:50:09;;;;;;;8.37;3.07;;;7.10;1.00;;;;;;5074126;28;20164;-76
2023/03/27 00:52:38;;;;;;;11.77;2.57;;;7.10;1.00;;;;;;5074586;28;20241;-76
2023/03/27 00:55:08;;;;;;;7.43;3.57;;;6.90;1.00;;;;;;5074468;28;20261;-76
2023/03/27 00:57:35;;;;;;;9.40;2.43;;;6.90;1.00;;;;;;5074986;28;20161;-75
2023/03/27 01:00:12;;;;;;;6.57;2.17;;;6.90;1.00;;;;;;5074449;28;20222;-76
2023/03/27 01:02:43;;;;;;;9.00;2.50;;;6.90;1.00;;;;;;5074012;28;20173;-76
2023/03/27 01:05:09;;;;;;;15.27;2.50;;;6.90;1.00;;;;;;5074239;28;20181;-76
2023/03/27 01:07:36;;;;;;;5.23;1.77;;;6.80;1.00;;;;;;5074035;28;20196;-75
2023/03/27 01:10:05;;;;;;;8.27;2.50;;;6.70;18.00;;;;;;5074061;28;20172;-76
2023/03/27 01:12:30;;;;;;;11.00;5.20;;;6.60;30.70;;;;;;5074060;28;20172;-76
2023/03/27 01:15:23;;;;;;;12.20;4.97;;;6.50;37.40;;;;;;5073640;28;20252;-75
2023/03/27 01:17:58;;;;;;;3.27;1.90;;;6.40;41.50;;;;;;5073479;28;20215;-74
2023/03/27 01:20:46;;;;;;;4.77;1.77;;;6.30;48.60;;;;;;5073860;28;20168;-76
2023/03/27 01:23:49;;;;;;;7.67;2.13;;;6.30;52.80;;;;;;5073935;28;20635;-75
2023/03/27 01:26:38;;;;;;;6.53;2.13;;;6.40;52.40;;;;;;5073936;28;20173;-76
2023/03/27 01:29:20;;;;;;;6.50;1.80;;;6.40;49.60;;;;;;5073893;28;20649;-77
2023/03/27 01:32:12;;;;;;;3.77;1.73;;;6.50;45.40;;;;;;5073578;28;20183;-75
2023/03/27 01:34:59;;;;;;;5.80;1.90;;;6.50;40.00;;;;;;5073863;28;20236;-76
2023/03/27 01:37:46;;;;;;;5.40;1.97;;;6.50;38.50;;;;;;5073816;28;20282;-76
2023/03/27 01:40:33;;;;;;;7.33;1.70;;;6.50;29.80;;;;;;5073993;28;20172;-76
2023/03/27 01:43:03;;;;;;;5.90;1.60;;;6.60;29.50;;;;;;5073771;28;20173;-76
2023/03/27 01:45:53;;;;;;;4.10;1.80;;;6.50;27.70;;;;;;5073511;28;20157;-77
2023/03/27 01:48:30;;;;;;;2.47;1.47;;;6.70;23.90;;;;;;5073340;28;20172;-76
2023/03/27 01:51:01;;;;;;;2.23;1.60;;;6.70;13.70;;;;;;5073731;28;20169;-75
2023/03/27 01:53:35;;;;;;;3.80;1.83;;;6.70;11.40;;;;;;5073522;28;20602;-76
2023/03/27 01:56:25;;;;;;;2.67;1.37;;;6.60;10.60;;;;;;5073610;28;20244;-77
2023/03/27 01:58:56;;;;;;;2.57;1.70;;;6.60;7.90;;;;;;5073681;28;20188;-75
2023/03/27 02:01:29;;;;;;;3.30;1.57;;;6.60;9.90;;;;;;5073284;28;20184;-76
2023/03/27 02:03:58;;;;;;;6.47;1.83;;;6.70;8.40;;;;;;5073489;28;20168;-76
2023/03/27 02:06:29;;;;;;;3.20;1.50;;;6.60;6.60;;;;;;5073476;28;20172;-76
2023/03/27 02:09:02;;;;;;;7.30;1.60;;;6.70;7.40;;;;;;5073714;28;20172;-76
2023/03/27 02:11:33;;;;;;;5.37;1.77;;;6.70;8.90;;;;;;5073610;28;20527;-76
2023/03/27 02:14:08;;;;;;;3.93;1.40;;;6.70;10.80;;;;;;5073321;28;20291;-75
2023/03/27 02:16:41;;;;;;;4.07;1.60;;;6.60;18.10;;;;;;5073307;28;20164;-75
2023/03/27 02:19:13;;;;;;;7.63;2.10;;;6.50;22.30;;;;;;5072803;28;20239;-75
2023/03/27 02:21:39;;;;;;;3.83;1.40;;;6.50;28.60;;;;;;5073147;28;20172;-76
2023/03/27 02:24:04;;;;;;;4.77;1.67;;;6.60;31.80;;;;;;5073511;28;20167;-76
2023/03/27 02:26:32;;;;;;;3.80;1.63;;;6.60;32.50;;;;;;5073313;28;20164;-77
2023/03/27 02:29:24;;;;;;;2.50;1.83;;;6.60;35.00;;;;;;5077565;28;20190;-76
2023/03/27 02:32:09;;;;;;;6.07;1.87;;;6.50;38.90;;;;;;5077352;28;20168;-75
2023/03/27 02:34:40;;;;;;;7.07;1.83;;;6.50;41.90;;;;;;5077405;28;20287;-76
2023/03/27 02:37:39;;;;;;;5.13;1.80;;;6.60;43.30;;;;;;5077482;28;20168;-76
2023/03/27 02:40:40;;;;;;;5.83;1.77;;;6.50;44.10;;;;;;5077075;28;20179;-75
2023/03/27 02:43:19;;;;;;;7.93;1.90;;;6.50;47.20;;;;;;5040246;28;20189;-76
2023/03/27 02:45:48;;;;;;;7.17;1.90;;;6.60;46.70;;;;;;5076909;28;20168;-76
2023/03/27 02:48:44;;;;;;;10.53;2.20;;;6.50;48.90;;;;;;5077520;28;20200;-76
2023/03/27 02:51:27;;;;;;;5.67;1.80;;;6.50;51.60;;;;;;5077018;28;20204;-77
2023/03/27 02:54:20;;;;;;;3.93;1.70;;;6.50;51.20;;;;;;5077573;28;20207;-75
2023/03/27 02:56:51;;;;;;;6.87;1.87;;;6.50;49.90;;;;;;5058889;28;20215;-76
2023/03/27 02:59:23;;;;;;;4.30;1.90;;;6.50;48.30;;;;;;5076304;28;20252;-75
2023/03/27 03:01:50;;;;;;;4.90;1.97;;;6.50;44.50;;;;;;5076823;28;20169;-76
2023/03/27 03:04:27;;;;;;;7.73;2.00;;;6.40;44.40;;;;;;5058856;28;20172;-76
2023/03/27 03:06:53;;;;;;;6.87;2.10;;;6.30;48.10;;;;;;5076594;28;20171;-75
2023/03/27 03:09:19;;;;;;;4.27;1.97;;;6.30;50.50;;;;;;5076683;28;20214;-75
2023/03/27 03:11:49;;;;;;;6.40;2.30;;;6.30;52.30;;;;;;5076553;28;20176;-75
2023/03/27 03:14:19;;;;;;;3.73;2.20;;;6.40;54.30;;;;;;5058222;28;20212;-76
2023/03/27 03:16:45;;;;;;;9.23;3.53;;;6.30;53.30;;;;;;5076520;28;20521;-75
2023/03/27 03:19:11;;;;;;;3.73;2.07;;;6.40;51.30;;;;;;5055023;28;20282;-76
2023/03/27 03:21:38;;;;;;;6.90;2.43;;;6.40;49.90;;;;;;5056188;28;20200;-76
2023/03/27 03:24:05;;;;;;;5.87;1.90;;;6.40;49.90;;;;;;5056067;28;20161;-75
2023/03/27 03:26:31;;;;;;;5.73;1.93;;;6.30;50.00;;;;;;5056086;28;20176;-75
2023/03/27 03:29:00;;;;;;;5.40;2.37;;;6.40;49.30;;;;;;5055689;28;20629;-76
2023/03/27 03:31:26;;;;;;;8.63;2.30;;;6.40;51.20;;;;;;5056149;28;20184;-75
2023/03/27 03:33:52;;;;;;;6.37;2.30;;;6.40;50.00;;;;;;5055903;28;20212;-75
2023/03/27 03:36:17;;;;;;;4.67;2.00;;;6.40;47.90;;;;;;5055968;28;20172;-76
2023/03/27 03:38:43;;;;;;;7.60;1.97;;;6.40;49.10;;;;;;5055360;28;20173;-75
2023/03/27 03:41:08;;;;;;;8.63;2.17;;;6.40;48.30;;;;;;5054464;28;20173;-75
2023/03/27 03:43:34;;;;;;;4.43;1.77;;;6.40;52.00;;;;;;5055621;28;20599;-75
2023/03/27 03:46:00;;;;;;;6.37;2.03;;;6.40;51.20;;;;;;5055513;28;20180;-75
2023/03/27 03:48:26;;;;;;;4.50;1.93;;;6.40;51.30;;;;;;5055539;28;20257;-77
2023/03/27 03:50:52;;;;;;;7.90;2.17;;;6.50;49.60;;;;;;5055479;28;20258;-76
2023/03/27 03:53:20;;;;;;;6.43;2.13;;;6.50;48.90;;;;;;5054824;28;20205;-76
2023/03/27 03:55:50;;;;;;;5.10;2.20;;;6.40;49.60;;;;;;5055383;28;20193;-76
2023/03/27 03:58:16;;;;;;;5.77;2.27;;;6.50;52.20;;;;;;5053852;28;20601;-75
2023/03/27 04:00:42;;;;;;;5.57;2.10;;;6.50;50.60;;;;;;5055467;28;20173;-76
2023/03/27 04:03:08;;;;;;;4.87;1.80;;;6.50;49.30;;;;;;5055368;28;20166;-75
2023/03/27 04:05:36;;;;;;;6.83;2.20;;;6.50;54.90;;;;;;5055123;28;20165;-75
2023/03/27 04:08:02;;;;;;;11.80;2.20;;;6.50;54.10;;;;;;5055006;28;20302;-75
2023/03/27 04:10:28;;;;;;;7.93;2.17;;;6.50;50.00;;;;;;5054497;28;20177;-75
2023/03/27 04:12:54;;;;;;;8.20;2.40;;;6.50;48.90;;;;;;5054032;28;20613;-75
2023/03/27 04:15:20;;;;;;;9.33;2.67;;;6.50;50.90;;;;;;5055012;28;20172;-76
2023/03/27 04:17:49;;;;;;;7.47;2.33;;;6.40;51.40;;;;;;5061861;28;20239;-76
2023/03/27 04:20:16;;;;;;;7.40;2.30;;;6.40;52.50;;;;;;5074835;28;20218;-75
2023/03/27 04:22:47;;;;;;;10.43;2.50;;;6.50;52.30;;;;;;5074703;28;20663;-75
2023/03/27 04:25:16;;;;;;;7.27;1.87;;;6.50;50.70;;;;;;5074819;28;20226;-76
2023/03/27 04:27:42;;;;;;;4.97;1.73;;;6.30;49.90;;;;;;5074729;28;20176;-75
2023/03/27 04:30:14;;;;;;;6.10;1.77;;;6.30;56.40;;;;;;5074527;28;20704;-76
2023/03/27 04:32:40;;;;;;;6.93;1.70;;;6.20;57.60;;;;;;5057273;28;20187;-76
2023/03/27 04:35:09;;;;;;;2.47;1.40;;;6.10;53.20;;;;;;5074365;28;20263;-75
2023/03/27 04:37:39;;;;;;;4.00;1.47;;;6.10;49.20;;;;;;5074481;28;20229;-75
2023/03/27 04:40:05;;;;;;;3.30;1.30;;;6.00;48.70;;;;;;5056444;28;20257;-76
2023/03/27 04:42:31;;;;;;;1.17;1.07;;;5.90;48.10;;;;;;5074305;28;20169;-76
2023/03/27 04:44:57;;;;;;;3.53;1.30;;;5.80;50.50;;;;;;5074122;28;20299;-76
2023/03/27 04:47:22;;;;;;;2.10;1.00;;;5.70;57.00;;;;;;5073842;28;20194;-76
2023/03/27 04:49:49;;;;;;;2.80;1.10;;;5.60;57.40;;;;;;5073690;28;20632;-75
2023/03/27 04:52:16;;;;;;;4.23;1.03;;;5.60;60.30;;;;;;5074066;28;20280;-76
2023/03/27 04:54:43;;;;;;;3.27;1.10;;;5.60;61.10;;;;;;5073152;28;20254;-76
2023/03/27 04:57:09;;;;;;;1.47;1.03;;;5.60;61.70;;;;;;5073923;28;20164;-77
2023/03/27 04:59:35;;;;;;;5.00;1.20;;;5.70;62.20;;;;;;5073990;28;20247;-76
2023/03/27 05:02:02;;;;;;;3.00;1.10;;;5.70;59.10;;;;;;5073696;28;20169;-77
2023/03/27 05:04:30;;;;;;;2.40;1.13;;;5.70;58.00;;;;;;5074085;28;20259;-77
2023/03/27 05:06:58;;;;;;;2.27;1.17;;;5.70;58.10;;;;;;5073541;28;20181;-77
2023/03/27 05:09:24;;;;;;;1.57;1.00;;;5.70;56.20;;;;;;5073340;28;20168;-76
2023/03/27 05:11:50;;;;;;;2.23;1.20;;;5.60;56.50;;;;;;5055805;28;20225;-77
2023/03/27 05:14:17;;;;;;;22.30;3.10;;;5.60;55.60;;;;;;5073453;28;20269;-76
2023/03/27 05:16:43;;;;;;;6.13;1.30;;;5.50;57.00;;;;;;5073107;28;20199;-77
2023/03/27 05:19:10;;;;;;;3.53;1.40;;;5.40;55.80;;;;;;5051975;28;20664;-77
2023/03/27 05:21:36;;;;;;;3.27;1.40;;;5.50;58.50;;;;;;5053718;28;20218;-77
2023/03/27 05:24:02;;;;;;;2.77;1.20;;;5.40;58.90;;;;;;5052816;28;20173;-76
2023/03/27 05:26:27;;;;;;;3.50;1.50;;;5.30;62.70;;;;;;5053255;28;20161;-76
2023/03/27 05:28:54;;;;;;;3.70;1.30;;;5.20;65.40;;;;;;5053100;28;20180;-77
2023/03/27 05:31:21;;;;;;;4.27;1.40;;;5.20;69.40;;;;;;5052617;28;20658;-77
2023/03/27 05:33:47;;;;;;;5.40;1.30;;;5.30;71.20;;;;;;5053144;28;20216;-76
2023/03/27 05:36:14;;;;;;;5.57;1.70;;;5.30;72.50;;;;;;5052691;28;20204;-77
2023/03/27 05:38:41;;;;;;;7.33;1.80;;;5.30;72.60;;;;;;5051379;28;20219;-76
2023/03/27 05:41:08;;;;;;;5.30;2.17;;;5.40;73.30;;;;;;5052483;28;20231;-76
2023/03/27 05:43:35;;;;;;;6.50;1.80;;;5.40;80.00;;;;;;5052805;28;20257;-77
2023/03/27 05:46:01;;;;;;;4.83;1.63;;;5.50;84.80;;;;;;5052288;28;20181;-78
2023/03/27 05:48:27;;;;;;;3.67;1.53;;;5.40;85.00;;;;;;5053198;28;20170;-77
2023/03/27 05:50:53;;;;;;;2.13;1.63;;;5.40;85.20;;;;;;5052587;28;20199;-77
2023/03/27 05:53:18;;;;;;;2.57;1.37;;;5.40;84.10;;;;;;5053171;28;20287;-76
2023/03/27 05:55:45;;;;;;;2.70;1.40;;;5.40;81.90;;;;;;5052864;28;20547;-78
2023/03/27 05:58:12;;;;;;;2.33;1.57;;;5.40;80.60;;;;;;5054622;28;20174;-78
2023/03/27 06:00:41;;;;;;;4.60;1.53;;;5.30;73.70;;;;;;5054128;28;20177;-79
2023/03/27 06:03:09;;;;;;;4.97;1.63;;;5.40;72.00;;;;;;5053120;28;20172;-77
2023/03/27 06:05:36;;;;;;;3.27;2.10;;;5.50;74.40;;;;;;5051808;28;20273;-78
2023/03/27 06:08:02;;;;;;;6.00;1.70;;;5.40;72.00;;;;;;5051834;28;20216;-78
2023/03/27 06:10:29;;;;;;;4.70;1.80;;;5.40;68.70;;;;;;5050936;28;20235;-77
2023/03/27 06:13:13;;;;;;;3.43;1.63;;;5.40;68.20;;;;;;5051743;28;20648;-75
2023/03/27 06:15:41;;;;;;;3.30;1.73;;;5.40;66.10;;;;;;5052400;28;20546;-76
2023/03/27 06:18:08;;;;;;;5.43;1.33;;;5.40;67.40;;;;;;5061519;28;20346;-78
2023/03/27 06:20:34;;;;;;;4.03;1.97;;;5.50;66.00;;;;;;5072231;28;20196;-77
2023/03/27 06:23:05;;;;;;;5.93;1.70;;;5.50;68.00;;;;;;5072020;28;20172;-76
2023/03/27 06:25:33;;;;;;;5.47;2.00;;;5.50;71.30;;;;;;5071856;28;20199;-77
2023/03/27 06:28:00;;;;;;;5.97;2.10;;;5.60;71.40;;;;;;5072129;28;20196;-77
2023/03/27 06:30:27;;;;;;;2.93;1.63;;;5.90;70.40;;;;;;5072198;28;20164;-76
2023/03/27 06:32:58;;;;;;;5.87;1.60;;;6.20;72.90;;;;;;5072064;28;20199;-76
2023/03/27 06:35:29;;;;;;;6.20;1.90;;;6.50;61.90;;;;;;5072305;28;20608;-75
2023/03/27 06:37:55;;;;;;;3.30;1.60;;;6.70;45.30;;;;;;5071750;28;20176;-76
2023/03/27 06:40:23;;;;;;;6.80;2.30;;;7.30;40.70;;;;;;5071475;28;20611;-77
2023/03/27 06:42:59;;;;;;;5.80;2.40;;;8.10;29.90;;;;;;5072524;28;20180;-77
2023/03/27 06:45:31;;;;;;;7.70;2.43;;;9.40;4.70;;;;;;5076103;28;20168;-79
2023/03/27 06:47:58;;;;;;;8.90;2.17;;;11.10;1.00;;;;;;5077006;28;20168;-80
2023/03/27 06:50:27;;;;;;;3.07;1.80;;;12.90;1.00;;;;;;5056113;28;20450;-80
2023/03/27 06:52:53;;;;;;;4.37;2.33;;;14.00;99.90;;;;;;5074186;28;20196;-82
2023/03/27 06:55:20;;;;;;;3.17;1.73;;;14.70;1.00;;;;;;5071720;28;20185;-82
2023/03/27 06:57:48;;;;;;;3.90;2.07;;;15.80;1.00;;;;;;5071498;28;20176;-81
2023/03/27 07:00:19;;;;;;;3.17;1.80;;;17.10;1.00;;;;;;5072458;28;20173;-82
2023/03/27 07:02:45;;;;;;;4.57;1.92;;;17.90;99.90;;;;;;5072238;28;20200;-82
2023/03/27 07:05:11;;;;;;;4.95;2.00;;;18.60;1.00;;;;;;5071346;28;20176;-81
2023/03/27 07:07:37;;;;;;;3.60;2.05;;;19.40;1.00;;;;;;5071729;28;20172;-84
2023/03/27 07:10:03;;;;;;;4.65;2.03;;;20.20;1.00;;;;;;5071431;28;20172;-82
2023/03/27 07:12:29;;;;;;;3.17;2.00;;;20.10;99.90;;;;;;5053512;28;20275;-80
2023/03/27 07:14:55;;;;;;;4.10;1.88;;;20.20;99.90;;;;;;5074978;28;20279;-81
2023/03/27 07:17:20;;;;;;;4.18;2.40;;;20.40;99.90;;;;;;5074752;28;20215;-80
2023/03/27 07:19:46;;;;;;;5.40;2.08;;;21.20;99.90;;;;;;5075123;28;20267;-80
2023/03/27 07:22:12;;;;;;;2.40;2.17;;;21.30;99.90;;;;;;5073543;28;20709;-82
2023/03/27 07:24:37;;;;;;;2.47;1.85;;;21.60;99.90;;;;;;5059742;28;20184;-80
2023/03/27 07:27:03;;;;;;;5.80;2.70;;;22.00;99.90;;;;;;5045265;28;20636;-81
2023/03/27 07:29:29;;;;;;;6.68;2.17;;;22.60;99.90;;;;;;5069246;28;20196;-80
2023/03/27 07:31:55;;;;;;;2.85;2.22;;;22.60;99.90;;;;;;5066168;28;20216;-80
2023/03/27 07:34:21;;;;;;;3.42;2.00;;;23.80;99.90;;;;;;5057942;28;20723;-78
2023/03/27 07:36:46;;;;;;;5.85;1.88;;;23.60;99.90;;;;;;5068033;28;20207;-77
2023/03/27 07:39:12;;;;;;;3.13;1.65;;;20.50;99.90;;;;;;5074609;28;20199;-77
2023/03/27 07:41:38;;;;;;;3.88;2.28;;;18.10;1.00;;;;;;5048848;28;20184;-77
2023/03/27 07:44:04;;;;;;;1.70;1.58;;;15.50;65.70;;;;;;5069405;28;20184;-80
2023/03/27 07:46:29;;;;;;;4.17;2.63;;;13.30;99.90;;;;;;5073842;28;20230;-77
2023/03/27 07:48:56;;;;;;;8.93;3.23;;;11.80;99.90;;;;;;5071095;28;20257;-78
2023/03/27 07:51:22;;;;;;;4.43;2.37;;;11.00;1.00;;;;;;5053734;28;20247;-79
2023/03/27 07:53:52;;;;;;;4.63;2.27;;;10.30;1.00;;;;;;5069713;28;20223;-79
2023/03/27 07:56:19;;;;;;;5.73;2.73;;;9.80;1.00;;;;;;5065120;28;20231;-77
2023/03/27 07:58:45;;;;;;;6.10;3.03;;;9.50;1.00;;;;;;5054662;28;20181;-78
2023/03/27 08:01:12;;;;;;;4.90;2.40;;;9.50;1.00;;;;;;5057320;28;20184;-78
2023/03/27 08:03:37;;;;;;;7.53;2.60;;;9.30;1.00;;;;;;5068412;28;20188;-79
2023/03/27 08:06:05;;;;;;;4.30;2.27;;;9.70;1.00;;;;;;5079367;28;20173;-80
2023/03/27 08:08:31;;;;;;;5.37;2.00;;;11.30;1.00;;;;;;5073147;28;20172;-82
2023/03/27 08:10:59;;;;;;;8.73;4.60;;;13.40;99.90;;;;;;5054004;28;20177;-81
2023/03/27 08:13:25;;;;;;;4.77;2.63;;;15.20;1.00;;;;;;5045210;28;20205;-80
2023/03/27 08:15:51;;;;;;;3.00;1.73;;;16.70;99.90;;;;;;5053513;28;20304;-79
2023/03/27 08:18:17;;;;;;;4.90;1.75;;;17.80;99.90;;;;;;5067894;28;20220;-80
2023/03/27 08:20:44;;;;;;;6.00;2.33;;;18.80;1.00;;;;;;5070207;28;20531;-82
2023/03/27 08:23:10;;;;;;;4.63;2.00;;;19.60;1.00;;;;;;5067218;28;20177;-82
2023/03/27 08:25:36;;;;;;;4.40;2.17;;;20.00;1.00;;;;;;5068238;28;20712;-83
2023/03/27 08:28:01;;;;;;;3.25;1.50;;;20.20;1.00;;;;;;5065705;28;20174;-78
2023/03/27 08:30:27;;;;;;;6.55;1.95;;;18.80;99.90;;;;;;5064596;28;20539;-81
2023/03/27 08:32:53;;;;;;;5.60;2.10;;;17.50;1.00;;;;;;5072910;28;20287;-82
2023/03/27 08:35:19;;;;;;;7.47;2.22;;;17.70;1.00;;;;;;5074139;28;20280;-82
2023/03/27 08:37:45;;;;;;;3.20;1.83;;;18.20;1.00;;;;;;5070240;28;20546;-82
2023/03/27 08:40:24;;;;;;;2.92;2.47;;;18.80;99.90;;;;;;5074414;28;20168;-84
2023/03/27 08:42:52;;;;;;;6.22;3.42;;;20.00;99.90;;;;;;5070489;28;20248;-83
2023/03/27 08:45:44;;;;;;;4.00;2.22;;;20.20;99.90;;;;;;5065421;28;20185;-82
2023/03/27 08:48:16;;;;;;;4.80;1.85;;;21.10;99.90;;;;;;5068221;28;20182;-83
2023/03/27 08:50:53;;;;;;;4.22;2.00;;;20.90;99.90;;;;;;5093968;28;20153;-79
2023/03/27 08:53:38;;;;;;;2.45;1.52;;;19.00;99.90;;;;;;5087371;28;20239;-80
2023/03/27 08:56:04;;;;;;;1.83;1.50;;;17.00;1.00;;;;;;5059471;28;20198;-81
2023/03/27 08:58:29;;;;;;;6.00;2.23;;;14.20;1.00;;;;;;5062527;28;20183;-81
2023/03/27 09:01:14;;;;;;;4.10;1.90;;;12.80;1.00;;;;;;5066721;28;20169;-81
2023/03/27 09:04:01;;;;;;;4.33;2.07;;;11.60;99.90;;;;;;5047332;28;20533;-80
2023/03/27 09:06:37;;;;;;;4.10;1.87;;;10.90;83.80;;;;;;5072064;28;20219;-82
2023/03/27 09:09:09;;;;;;;6.00;1.70;;;11.40;1.00;;;;;;5073308;28;20650;-81
2023/03/27 09:11:49;;;;;;;5.40;1.80;;;11.90;1.00;;;;;;5079132;28;20204;-82
2023/03/27 09:14:24;;;;;;;6.03;1.57;;;12.40;99.90;;;;;;5057050;28;20693;-81
2023/03/27 09:16:53;;;;;;;4.13;1.30;;;13.40;99.90;;;;;;5070956;28;20184;-84
2023/03/27 09:19:30;;;;;;;4.00;1.50;;;14.70;99.90;;;;;;5071056;28;20266;-84
2023/03/27 09:22:06;;;;;;;4.97;1.98;;;16.40;1.00;;;;;;5066497;28;20184;-85
2023/03/27 09:24:42;;;;;;;5.45;1.92;;;17.90;1.00;;;;;;5073046;28;20180;-84
2023/03/27 09:27:35;;;;;;;2.55;1.90;;;18.90;99.90;;;;;;5071443;28;20646;-84
2023/03/27 09:30:07;;;;;;;9.13;3.30;;;19.80;99.90;;;;;;5064314;28;20189;-82
2023/03/27 09:32:33;;;;;;;8.43;1.88;;;19.90;99.90;;;;;;5064903;28;20237;-82
2023/03/27 09:34:59;;;;;;;3.70;1.70;;;19.70;99.90;;;;;;5068526;28;20212;-79
2023/03/27 09:37:26;;;;;;;5.35;1.77;;;18.50;99.90;;;;;;5067474;28;20217;-82
2023/03/27 09:39:53;;;;;;;1.92;1.67;;;18.50;99.90;;;;;;5063606;28;20173;-82
2023/03/27 09:42:29;;;;;;;5.95;1.70;;;18.20;99.90;;;;;;5052704;28;20574;-82
2023/03/27 09:44:59;;;;;;;4.68;1.88;;;17.50;99.90;;;;;;5060066;28;20636;-82
2023/03/27 09:47:39;;;;;;;7.18;2.10;;;16.90;99.90;;;;;;5070137;28;20172;-82
2023/03/27 09:50:24;;;;;;;3.30;1.60;;;17.10;99.90;;;;;;5069668;28;20184;-82
2023/03/27 09:52:51;;;;;;;4.57;2.17;;;15.90;1.00;;;;;;5066649;28;20180;-82
2023/03/27 09:55:29;;;;;;;5.18;2.10;;;15.90;1.00;;;;;;5068337;28;20205;-80
2023/03/27 09:58:19;;;;;;;3.72;2.05;;;16.10;1.00;;;;;;5071666;28;20188;-81
2023/03/27 10:00:45;;;;;;;3.90;1.75;;;15.70;1.00;;;;;;5063735;28;20271;-80
2023/03/27 10:03:16;;;;;;;6.20;2.22;;;15.10;99.90;;;;;;5068986;28;20263;-82
2023/03/27 10:05:43;;;;;;;5.47;1.80;;;15.10;1.00;;;;;;5070205;28;20173;-80
2023/03/27 10:08:43;;;;;;;3.87;1.47;;;14.70;1.00;;;;;;5068219;28;20585;-79
2023/03/27 10:11:15;;;;;;;5.63;1.53;;;13.90;1.00;;;;;;5072559;28;20603;-81
2023/03/27 10:13:46;;;;;;;4.17;1.60;;;13.50;1.00;;;;;;5072306;28;20211;-82
2023/03/27 10:16:16;;;;;;;3.67;1.93;;;13.50;1.00;;;;;;5071424;28;20267;-83
2023/03/27 10:18:48;;;;;;;4.10;1.67;;;14.40;1.00;;;;;;5071185;28;20702;-82
2023/03/27 10:21:40;;;;;;;7.57;1.60;;;15.40;1.00;;;;;;5072238;28;20577;-81
2023/03/27 10:24:38;;;;;;;6.40;2.00;;;15.90;99.90;;;;;;5043689;28;20196;-83
2023/03/27 10:27:06;;;;;;;7.88;2.28;;;16.00;99.90;;;;;;5053243;28;20191;-80
2023/03/27 10:29:34;;;;;;;5.35;1.90;;;16.20;99.90;;;;;;5067765;28;20245;-81
2023/03/27 10:32:04;;;;;;;3.00;1.95;;;15.30;99.90;;;;;;5071692;28;20173;-82
2023/03/27 10:34:32;;;;;;;3.67;1.97;;;14.00;99.90;;;;;;5071385;28;20248;-84
2023/03/27 10:37:00;;;;;;;5.50;1.93;;;12.50;99.90;;;;;;5071360;28;20196;-81
2023/03/27 10:39:28;;;;;;;3.83;1.90;;;11.20;1.00;;;;;;5070764;28;20181;-78
2023/03/27 10:41:55;;;;;;;7.77;2.33;;;10.30;1.00;;;;;;5069861;28;20173;-77
2023/03/27 10:44:24;;;;;;;3.07;2.23;;;9.30;1.00;;;;;;5068736;28;20188;-78
2023/03/27 10:46:51;;;;;;;6.53;1.97;;;9.10;1.00;;;;;;5054526;28;20169;-78
2023/03/27 10:49:50;;;;;;;7.23;2.60;;;8.80;1.00;;;;;;5069941;28;20655;-79
2023/03/27 10:52:35;;;;;;;5.93;2.17;;;8.90;1.00;;;;;;5070473;28;20363;-77
2023/03/27 10:55:18;;;;;;;6.80;2.40;;;9.00;1.00;;;;;;5072782;28;20232;-76
2023/03/27 10:57:53;;;;;;;9.30;3.43;;;9.00;1.00;;;;;;5067603;28;20319;-79
2023/03/27 11:00:31;;;;;;;8.13;2.53;;;9.00;1.00;;;;;;5071182;28;20702;-78
2023/03/27 11:02:57;;;;;;;6.63;2.30;;;9.20;1.00;;;;;;5072992;28;20219;-78
2023/03/27 11:05:29;;;;;;;15.73;3.23;;;9.20;1.00;;;;;;5075305;28;20216;-79
2023/03/27 11:07:59;;;;;;;11.10;3.40;;;9.50;1.00;;;;;;5073151;28;20639;-77
2023/03/27 11:10:39;;;;;;;5.43;2.90;;;10.00;1.00;;;;;;5075473;28;20247;-77
2023/03/27 11:13:09;;;;;;;5.03;2.40;;;10.60;1.00;;;;;;5068202;28;20216;-79
2023/03/27 11:15:50;;;;;;;7.63;2.17;;;11.50;1.00;;;;;;5062869;28;20176;-79
2023/03/27 11:18:34;;;;;;;6.30;2.07;;;12.00;52.50;;;;;;5072175;28;20365;-79
2023/03/27 11:21:04;;;;;;;6.27;2.00;;;12.40;99.90;;;;;;5076300;28;20173;-79
2023/03/27 11:23:41;;;;;;;5.70;1.40;;;12.00;1.00;;;;;;5073583;28;20173;-78
2023/03/27 11:26:12;;;;;;;2.90;1.40;;;11.40;32.50;;;;;;5079735;28;20195;-78
2023/03/27 11:28:54;;;;;;;5.53;1.70;;;10.80;1.00;;;;;;5073224;28;20237;-76
2023/03/27 11:31:33;;;;;;;3.90;1.20;;;10.20;6.70;;;;;;5054576;28;20169;-78
2023/03/27 11:34:04;;;;;;;4.27;1.20;;;9.90;1.00;;;;;;5056064;28;20209;-77
2023/03/27 11:36:48;;;;;;;3.80;1.30;;;10.00;1.00;;;;;;5072964;28;20231;-76
2023/03/27 11:39:38;;;;;;;7.17;2.20;;;10.40;99.90;;;;;;5070926;28;20172;-77
2023/03/27 11:42:17;;;;;;;6.27;1.73;;;10.80;42.40;;;;;;5078519;28;20226;-79
2023/03/27 11:44:44;;;;;;;3.20;1.70;;;11.10;99.90;;;;;;5074292;28;20183;-77
2023/03/27 11:47:21;;;;;;;2.60;1.77;;;11.40;99.90;;;;;;5071467;28;20176;-80
2023/03/27 11:50:28;;;;;;;4.97;2.07;;;11.40;1.00;;;;;;5072146;28;20188;-79
2023/03/27 11:53:05;;;;;;;7.67;1.87;;;11.40;1.00;;;;;;5074237;28;20557;-78
2023/03/27 11:56:02;;;;;;;5.10;1.60;;;10.80;99.90;;;;;;5073414;28;20548;-77
2023/03/27 11:59:00;;;;;;;4.00;1.77;;;10.30;99.90;;;;;;5073100;28;20180;-78
2023/03/27 12:01:57;;;;;;;2.73;1.30;;;10.30;99.90;;;;;;5071709;28;20237;-78
2023/03/27 12:04:32;;;;;;;4.23;2.17;;;10.20;1.00;;;;;;5065413;28;20176;-79
2023/03/27 12:07:07;;;;;;;3.10;1.50;;;10.50;30.40;;;;;;5071095;28;20197;-80
2023/03/27 12:09:51;;;;;;;3.10;1.50;;;11.00;99.90;;;;;;5069819;28;20184;-80
2023/03/27 12:12:51;;;;;;;2.73;1.60;;;11.70;1.00;;;;;;5073139;28;20237;-80
2023/03/27 12:15:38;;;;;;;5.63;1.50;;;12.70;99.90;;;;;;5074505;28;20212;-81
2023/03/27 12:18:56;;;;;;;2.17;1.37;;;13.10;99.90;;;;;;5070611;28;20369;-79
2023/03/27 12:21:57;;;;;;;4.20;1.57;;;12.90;99.90;;;;;;5029489;28;20185;-80
2023/03/27 12:24:48;;;;;;;3.47;1.20;;;13.20;99.90;;;;;;5066610;28;20181;-79
2023/03/27 12:27:22;;;;;;;7.83;1.53;;;12.60;1.00;;;;;;5057981;28;20173;-79
2023/03/27 12:30:03;;;;;;;4.30;1.30;;;12.20;99.90;;;;;;5072983;28;20651;-78
2023/03/27 12:32:38;;;;;;;4.87;1.40;;;11.70;99.90;;;;;;5053692;28;20179;-79
2023/03/27 12:35:21;;;;;;;3.20;1.23;;;11.40;1.00;;;;;;5072712;28;20204;-80
2023/03/27 12:37:57;;;;;;;6.30;1.40;;;11.30;57.40;;;;;;5071208;28;20179;-80
2023/03/27 12:40:38;;;;;;;2.27;1.10;;;11.00;82.30;;;;;;5070254;28;20210;-78
2023/03/27 12:43:18;;;;;;;5.87;1.60;;;10.80;1.00;;;;;;5070619;28;20654;-79
2023/03/27 12:46:13;;;;;;;4.53;1.60;;;10.90;1.00;;;;;;5061821;28;20332;-78
2023/03/27 12:48:49;;;;;;;6.03;1.60;;;10.80;99.90;;;;;;5007913;28;20192;-78
2023/03/27 12:51:18;;;;;;;3.53;1.47;;;10.80;1.00;;;;;;5062724;28;20662;-80
2023/03/27 12:53:54;;;;;;;6.60;2.00;;;11.10;99.90;;;;;;5071442;28;20253;-80
2023/03/27 12:56:26;;;;;;;2.40;1.90;;;11.30;1.00;;;;;;5072745;28;20172;-79
2023/03/27 12:58:54;;;;;;;3.17;1.57;;;11.40;1.00;;;;;;5072262;28;20260;-80
2023/03/27 13:01:45;;;;;;;4.47;2.20;;;11.60;99.90;;;;;;5059763;28;21490;-82
2023/03/27 13:04:26;;;;;;;8.00;2.70;;;12.00;1.00;;;;;;5063102;28;20184;-79
2023/03/27 13:07:27;;;;;;;4.37;1.77;;;12.20;1.00;;;;;;5070254;28;20180;-80
2023/03/27 13:10:02;;;;;;;5.10;1.80;;;12.20;1.00;;;;;;5070236;28;20209;-80
2023/03/27 13:12:37;;;;;;;5.67;1.80;;;12.20;1.00;;;;;;5077664;28;20182;-80
2023/03/27 13:15:08;;;;;;;5.37;1.30;;;11.80;1.00;;;;;;5072723;28;20673;-79
2023/03/27 13:17:49;;;;;;;6.93;2.00;;;10.60;99.90;;;;;;4954862;28;3877803;-77
2023/03/27 13:20:30;;;;;;;5.47;2.00;;;9.90;99.90;;;;;;5069695;28;20189;-78
2023/03/27 13:23:18;;;;;;;4.57;2.40;;;9.30;1.00;;;;;;5069187;28;20226;-77